sensor_id;sensor_type;location;lat;lon;timestamp;P1;durP1;ratioP1;P2;durP2;ratioP2
19944;SDS011;10134;50.952;6.930;2023-05-01T00:02:22;3.90;;;1.98;;
19944;SDS011;10134;50.952;6.930;2023-05-01T00:04:49;3.88;;;2.25;;
19944;SDS011;10134;50.952;6.930;2023-05-01T00:07:17;4.13;;;2.28;;
19944;SDS011;10134;50.952;6.930;2023-05-01T00:09:44;3.88;;;2.50;;
19944;SDS011;10134;50.952;6.930;2023-05-01T00:12:12;3.33;;;2.35;;
19944;SDS011;10134;50.952;6.930;2023-05-01T00:14:39;4.05;;;1.80;;
19944;SDS011;10134;50.952;6.930;2023-05-01T00:17:07;4.03;;;2.20;;
19944;SDS011;10134;50.952;6.930;2023-05-01T00:19:34;5.78;;;2.33;;
19944;SDS011;10134;50.952;6.930;2023-05-01T00:22:02;3.30;;;1.85;;
19944;SDS011;10134;50.952;6.930;2023-05-01T00:24:29;2.85;;;1.65;;
19944;SDS011;10134;50.952;6.930;2023-05-01T00:26:56;4.18;;;2.08;;
19944;SDS011;10134;50.952;6.930;2023-05-01T00:29:24;3.33;;;2.25;;
19944;SDS011;10134;50.952;6.930;2023-05-01T00:31:51;2.35;;;1.98;;
19944;SDS011;10134;50.952;6.930;2023-05-01T00:34:20;2.67;;;1.90;;
19944;SDS011;10134;50.952;6.930;2023-05-01T00:36:48;3.05;;;2.13;;
19944;SDS011;10134;50.952;6.930;2023-05-01T00:39:15;3.53;;;1.77;;
19944;SDS011;10134;50.952;6.930;2023-05-01T00:41:43;3.03;;;1.95;;
19944;SDS011;10134;50.952;6.930;2023-05-01T00:44:10;3.15;;;1.50;;
19944;SDS011;10134;50.952;6.930;2023-05-01T00:46:38;2.63;;;1.67;;
19944;SDS011;10134;50.952;6.930;2023-05-01T00:49:05;3.28;;;1.65;;
19944;SDS011;10134;50.952;6.930;2023-05-01T00:51:33;3.08;;;2.10;;
19944;SDS011;10134;50.952;6.930;2023-05-01T00:54:01;6.28;;;1.90;;
19944;SDS011;10134;50.952;6.930;2023-05-01T00:56:32;7.65;;;2.22;;
19944;SDS011;10134;50.952;6.930;2023-05-01T00:58:59;2.92;;;2.05;;
19944;SDS011;10134;50.952;6.930;2023-05-01T01:01:27;7.82;;;2.05;;
19944;SDS011;10134;50.952;6.930;2023-05-01T01:03:54;2.83;;;2.28;;
19944;SDS011;10134;50.952;6.930;2023-05-01T01:14:30;3.13;;;2.33;;
19944;SDS011;10134;50.952;6.930;2023-05-01T01:17:06;5.07;;;3.13;;
19944;SDS011;10134;50.952;6.930;2023-05-01T01:22:34;4.15;;;2.28;;
19944;SDS011;10134;50.952;6.930;2023-05-01T01:36:55;3.05;;;2.22;;
19944;SDS011;10134;50.952;6.930;2023-05-01T01:42:39;5.05;;;2.85;;
19944;SDS011;10134;50.952;6.930;2023-05-01T01:45:21;3.47;;;2.33;;
19944;SDS011;10134;50.952;6.930;2023-05-01T01:47:51;3.63;;;2.35;;
19944;SDS011;10134;50.952;6.930;2023-05-01T01:50:21;2.97;;;2.22;;
19944;SDS011;10134;50.952;6.930;2023-05-01T01:52:52;2.70;;;1.95;;
19944;SDS011;10134;50.952;6.930;2023-05-01T01:55:21;6.35;;;2.47;;
19944;SDS011;10134;50.952;6.930;2023-05-01T01:57:53;3.72;;;2.20;;
19944;SDS011;10134;50.952;6.930;2023-05-01T02:00:21;3.55;;;2.22;;
19944;SDS011;10134;50.952;6.930;2023-05-01T02:02:49;4.93;;;2.30;;
19944;SDS011;10134;50.952;6.930;2023-05-01T02:05:20;5.05;;;2.40;;
19944;SDS011;10134;50.952;6.930;2023-05-01T02:07:49;3.28;;;2.55;;
19944;SDS011;10134;50.952;6.930;2023-05-01T02:10:18;3.75;;;2.45;;
19944;SDS011;10134;50.952;6.930;2023-05-01T02:12:49;3.38;;;2.25;;
19944;SDS011;10134;50.952;6.930;2023-05-01T02:15:17;4.60;;;2.00;;
19944;SDS011;10134;50.952;6.930;2023-05-01T02:17:46;2.70;;;2.10;;
19944;SDS011;10134;50.952;6.930;2023-05-01T02:20:15;4.25;;;2.25;;
19944;SDS011;10134;50.952;6.930;2023-05-01T02:22:43;2.67;;;2.00;;
19944;SDS011;10134;50.952;6.930;2023-05-01T02:25:13;4.50;;;2.25;;
19944;SDS011;10134;50.952;6.930;2023-05-01T02:27:43;2.72;;;1.92;;
19944;SDS011;10134;50.952;6.930;2023-05-01T02:30:16;3.00;;;1.95;;
19944;SDS011;10134;50.952;6.930;2023-05-01T02:32:44;3.75;;;2.40;;
19944;SDS011;10134;50.952;6.930;2023-05-01T02:35:15;2.85;;;2.15;;
19944;SDS011;10134;50.952;6.930;2023-05-01T02:37:45;3.25;;;2.33;;
19944;SDS011;10134;50.952;6.930;2023-05-01T02:40:12;3.17;;;2.17;;
19944;SDS011;10134;50.952;6.930;2023-05-01T02:42:41;3.13;;;2.20;;
19944;SDS011;10134;50.952;6.930;2023-05-01T02:45:17;2.70;;;2.13;;
19944;SDS011;10134;50.952;6.930;2023-05-01T02:47:50;7.13;;;2.40;;
19944;SDS011;10134;50.952;6.930;2023-05-01T02:50:22;2.95;;;2.10;;
19944;SDS011;10134;50.952;6.930;2023-05-01T02:52:50;4.15;;;2.35;;
19944;SDS011;10134;50.952;6.930;2023-05-01T02:55:29;6.50;;;2.97;;
19944;SDS011;10134;50.952;6.930;2023-05-01T02:57:57;5.28;;;2.92;;
19944;SDS011;10134;50.952;6.930;2023-05-01T03:00:25;6.45;;;2.90;;
19944;SDS011;10134;50.952;6.930;2023-05-01T03:02:53;3.38;;;2.17;;
19944;SDS011;10134;50.952;6.930;2023-05-01T03:05:21;3.63;;;2.20;;
19944;SDS011;10134;50.952;6.930;2023-05-01T03:07:48;3.67;;;2.10;;
19944;SDS011;10134;50.952;6.930;2023-05-01T03:10:17;3.88;;;2.70;;
19944;SDS011;10134;50.952;6.930;2023-05-01T03:12:44;6.20;;;2.58;;
19944;SDS011;10134;50.952;6.930;2023-05-01T03:15:11;4.55;;;2.35;;
19944;SDS011;10134;50.952;6.930;2023-05-01T03:17:39;7.45;;;3.30;;
19944;SDS011;10134;50.952;6.930;2023-05-01T03:20:06;4.05;;;2.53;;
19944;SDS011;10134;50.952;6.930;2023-05-01T03:22:35;7.25;;;2.95;;
19944;SDS011;10134;50.952;6.930;2023-05-01T03:25:03;2.85;;;2.30;;
19944;SDS011;10134;50.952;6.930;2023-05-01T03:27:31;4.82;;;2.80;;
19944;SDS011;10134;50.952;6.930;2023-05-01T03:29:58;5.80;;;2.53;;
19944;SDS011;10134;50.952;6.930;2023-05-01T03:32:26;5.05;;;2.80;;
19944;SDS011;10134;50.952;6.930;2023-05-01T03:34:55;3.05;;;2.33;;
19944;SDS011;10134;50.952;6.930;2023-05-01T03:37:23;4.07;;;2.83;;
19944;SDS011;10134;50.952;6.930;2023-05-01T03:39:51;6.47;;;2.80;;
19944;SDS011;10134;50.952;6.930;2023-05-01T03:42:38;5.32;;;2.60;;
19944;SDS011;10134;50.952;6.930;2023-05-01T03:45:13;4.88;;;2.88;;
19944;SDS011;10134;50.952;6.930;2023-05-01T03:47:40;3.60;;;2.78;;
19944;SDS011;10134;50.952;6.930;2023-05-01T03:50:08;4.10;;;2.67;;
19944;SDS011;10134;50.952;6.930;2023-05-01T03:52:37;5.07;;;2.50;;
19944;SDS011;10134;50.952;6.930;2023-05-01T03:55:05;5.07;;;2.75;;
19944;SDS011;10134;50.952;6.930;2023-05-01T03:57:39;6.55;;;2.92;;
19944;SDS011;10134;50.952;6.930;2023-05-01T04:00:07;4.35;;;2.35;;
19944;SDS011;10134;50.952;6.930;2023-05-01T04:02:46;5.15;;;2.47;;
19944;SDS011;10134;50.952;6.930;2023-05-01T04:05:20;6.38;;;3.08;;
19944;SDS011;10134;50.952;6.930;2023-05-01T04:07:55;3.85;;;2.70;;
19944;SDS011;10134;50.952;6.930;2023-05-01T04:10:22;6.28;;;2.63;;
19944;SDS011;10134;50.952;6.930;2023-05-01T04:12:55;4.45;;;2.85;;
19944;SDS011;10134;50.952;6.930;2023-05-01T04:15:23;6.85;;;3.03;;
19944;SDS011;10134;50.952;6.930;2023-05-01T04:17:50;4.18;;;2.78;;
19944;SDS011;10134;50.952;6.930;2023-05-01T04:20:18;4.68;;;3.15;;
19944;SDS011;10134;50.952;6.930;2023-05-01T04:22:46;5.43;;;2.72;;
19944;SDS011;10134;50.952;6.930;2023-05-01T04:25:13;4.72;;;3.00;;
19944;SDS011;10134;50.952;6.930;2023-05-01T04:27:41;7.32;;;3.70;;
19944;SDS011;10134;50.952;6.930;2023-05-01T04:30:09;5.07;;;2.63;;
19944;SDS011;10134;50.952;6.930;2023-05-01T04:32:37;3.30;;;2.70;;
19944;SDS011;10134;50.952;6.930;2023-05-01T04:35:05;4.80;;;3.28;;
19944;SDS011;10134;50.952;6.930;2023-05-01T04:37:32;5.60;;;3.42;;
19944;SDS011;10134;50.952;6.930;2023-05-01T04:40:02;4.93;;;3.10;;
19944;SDS011;10134;50.952;6.930;2023-05-01T04:42:30;4.60;;;3.17;;
19944;SDS011;10134;50.952;6.930;2023-05-01T04:44:58;5.35;;;2.92;;
19944;SDS011;10134;50.952;6.930;2023-05-01T04:47:34;7.68;;;2.60;;
19944;SDS011;10134;50.952;6.930;2023-05-01T04:50:01;3.22;;;2.65;;
19944;SDS011;10134;50.952;6.930;2023-05-01T04:52:30;4.88;;;2.58;;
19944;SDS011;10134;50.952;6.930;2023-05-01T04:55:00;3.22;;;2.42;;
19944;SDS011;10134;50.952;6.930;2023-05-01T04:57:30;3.50;;;2.53;;
19944;SDS011;10134;50.952;6.930;2023-05-01T04:59:59;3.63;;;2.17;;
19944;SDS011;10134;50.952;6.930;2023-05-01T05:02:27;4.20;;;2.67;;
19944;SDS011;10134;50.952;6.930;2023-05-01T05:04:55;3.67;;;2.72;;
19944;SDS011;10134;50.952;6.930;2023-05-01T05:07:23;3.78;;;2.50;;
19944;SDS011;10134;50.952;6.930;2023-05-01T05:10:10;4.40;;;2.45;;
19944;SDS011;10134;50.952;6.930;2023-05-01T05:12:39;5.10;;;3.15;;
19944;SDS011;10134;50.952;6.930;2023-05-01T05:15:06;5.45;;;2.75;;
19944;SDS011;10134;50.952;6.930;2023-05-01T05:17:34;4.25;;;2.17;;
19944;SDS011;10134;50.952;6.930;2023-05-01T05:20:02;7.78;;;3.30;;
19944;SDS011;10134;50.952;6.930;2023-05-01T05:22:29;3.10;;;2.80;;
19944;SDS011;10134;50.952;6.930;2023-05-01T05:25:23;3.55;;;2.65;;
19944;SDS011;10134;50.952;6.930;2023-05-01T05:27:51;4.57;;;2.50;;
19944;SDS011;10134;50.952;6.930;2023-05-01T05:30:18;3.55;;;2.17;;
19944;SDS011;10134;50.952;6.930;2023-05-01T05:32:46;3.00;;;1.95;;
19944;SDS011;10134;50.952;6.930;2023-05-01T05:35:13;2.88;;;2.08;;
19944;SDS011;10134;50.952;6.930;2023-05-01T05:37:41;2.78;;;2.33;;
19944;SDS011;10134;50.952;6.930;2023-05-01T05:40:12;3.53;;;2.67;;
19944;SDS011;10134;50.952;6.930;2023-05-01T05:42:50;11.30;;;2.78;;
19944;SDS011;10134;50.952;6.930;2023-05-01T05:45:18;5.90;;;2.47;;
19944;SDS011;10134;50.952;6.930;2023-05-01T05:47:46;5.38;;;2.20;;
19944;SDS011;10134;50.952;6.930;2023-05-01T05:50:14;4.65;;;2.35;;
19944;SDS011;10134;50.952;6.930;2023-05-01T05:52:43;4.97;;;2.70;;
19944;SDS011;10134;50.952;6.930;2023-05-01T05:55:11;4.60;;;3.55;;
19944;SDS011;10134;50.952;6.930;2023-05-01T05:57:42;4.65;;;2.78;;
19944;SDS011;10134;50.952;6.930;2023-05-01T06:00:09;5.38;;;2.60;;
19944;SDS011;10134;50.952;6.930;2023-05-01T06:02:44;3.13;;;2.45;;
19944;SDS011;10134;50.952;6.930;2023-05-01T06:05:12;4.30;;;3.17;;
19944;SDS011;10134;50.952;6.930;2023-05-01T06:07:39;4.75;;;2.80;;
19944;SDS011;10134;50.952;6.930;2023-05-01T06:10:06;4.97;;;2.50;;
19944;SDS011;10134;50.952;6.930;2023-05-01T06:12:34;2.88;;;2.05;;
19944;SDS011;10134;50.952;6.930;2023-05-01T06:15:05;6.30;;;2.45;;
19944;SDS011;10134;50.952;6.930;2023-05-01T06:17:36;4.15;;;2.28;;
19944;SDS011;10134;50.952;6.930;2023-05-01T06:20:04;3.67;;;2.70;;
19944;SDS011;10134;50.952;6.930;2023-05-01T06:22:32;4.28;;;2.50;;
19944;SDS011;10134;50.952;6.930;2023-05-01T06:25:17;2.97;;;2.40;;
19944;SDS011;10134;50.952;6.930;2023-05-01T06:27:45;5.80;;;2.42;;
19944;SDS011;10134;50.952;6.930;2023-05-01T06:30:13;5.13;;;2.50;;
19944;SDS011;10134;50.952;6.930;2023-05-01T06:32:41;4.22;;;2.40;;
19944;SDS011;10134;50.952;6.930;2023-05-01T06:35:10;5.00;;;1.90;;
19944;SDS011;10134;50.952;6.930;2023-05-01T06:37:37;3.13;;;2.35;;
19944;SDS011;10134;50.952;6.930;2023-05-01T06:40:06;2.47;;;2.17;;
19944;SDS011;10134;50.952;6.930;2023-05-01T06:42:36;2.28;;;2.08;;
19944;SDS011;10134;50.952;6.930;2023-05-01T06:45:07;4.68;;;2.40;;
19944;SDS011;10134;50.952;6.930;2023-05-01T06:47:35;3.78;;;2.53;;
19944;SDS011;10134;50.952;6.930;2023-05-01T06:50:02;3.00;;;2.40;;
19944;SDS011;10134;50.952;6.930;2023-05-01T06:52:32;7.47;;;2.67;;
19944;SDS011;10134;50.952;6.930;2023-05-01T06:55:04;6.00;;;2.40;;
19944;SDS011;10134;50.952;6.930;2023-05-01T06:57:32;4.65;;;2.88;;
19944;SDS011;10134;50.952;6.930;2023-05-01T06:59:59;4.25;;;2.38;;
19944;SDS011;10134;50.952;6.930;2023-05-01T07:02:27;2.67;;;2.05;;
19944;SDS011;10134;50.952;6.930;2023-05-01T07:04:54;4.43;;;2.42;;
19944;SDS011;10134;50.952;6.930;2023-05-01T07:07:21;4.20;;;2.30;;
19944;SDS011;10134;50.952;6.930;2023-05-01T07:09:49;3.42;;;2.13;;
19944;SDS011;10134;50.952;6.930;2023-05-01T07:12:16;3.35;;;2.13;;
19944;SDS011;10134;50.952;6.930;2023-05-01T07:14:43;3.20;;;2.40;;
19944;SDS011;10134;50.952;6.930;2023-05-01T07:17:10;5.97;;;2.50;;
19944;SDS011;10134;50.952;6.930;2023-05-01T07:19:38;4.93;;;2.30;;
19944;SDS011;10134;50.952;6.930;2023-05-01T07:22:05;2.72;;;2.13;;
19944;SDS011;10134;50.952;6.930;2023-05-01T07:24:33;5.65;;;2.33;;
19944;SDS011;10134;50.952;6.930;2023-05-01T07:27:00;6.20;;;2.55;;
19944;SDS011;10134;50.952;6.930;2023-05-01T07:29:27;2.22;;;2.00;;
19944;SDS011;10134;50.952;6.930;2023-05-01T07:31:55;3.33;;;2.00;;
19944;SDS011;10134;50.952;6.930;2023-05-01T07:34:23;5.13;;;2.28;;
19944;SDS011;10134;50.952;6.930;2023-05-01T07:36:50;3.65;;;2.47;;
19944;SDS011;10134;50.952;6.930;2023-05-01T07:39:17;4.53;;;2.40;;
19944;SDS011;10134;50.952;6.930;2023-05-01T07:41:45;4.82;;;2.65;;
19944;SDS011;10134;50.952;6.930;2023-05-01T07:44:12;4.88;;;2.08;;
19944;SDS011;10134;50.952;6.930;2023-05-01T07:46:39;3.45;;;1.80;;
19944;SDS011;10134;50.952;6.930;2023-05-01T07:49:07;7.43;;;2.70;;
19944;SDS011;10134;50.952;6.930;2023-05-01T07:51:34;2.70;;;1.83;;
19944;SDS011;10134;50.952;6.930;2023-05-01T07:54:02;4.63;;;2.92;;
19944;SDS011;10134;50.952;6.930;2023-05-01T07:56:30;3.08;;;2.35;;
19944;SDS011;10134;50.952;6.930;2023-05-01T07:58:57;5.93;;;2.35;;
19944;SDS011;10134;50.952;6.930;2023-05-01T08:01:24;3.17;;;2.00;;
19944;SDS011;10134;50.952;6.930;2023-05-01T08:03:52;3.67;;;2.08;;
19944;SDS011;10134;50.952;6.930;2023-05-01T08:06:19;2.00;;;1.77;;
19944;SDS011;10134;50.952;6.930;2023-05-01T08:08:47;6.18;;;2.28;;
19944;SDS011;10134;50.952;6.930;2023-05-01T08:11:14;2.50;;;1.95;;
19944;SDS011;10134;50.952;6.930;2023-05-01T08:13:42;3.78;;;1.80;;
19944;SDS011;10134;50.952;6.930;2023-05-01T08:16:09;6.35;;;2.35;;
19944;SDS011;10134;50.952;6.930;2023-05-01T08:18:36;4.03;;;2.30;;
19944;SDS011;10134;50.952;6.930;2023-05-01T08:21:04;9.38;;;2.65;;
19944;SDS011;10134;50.952;6.930;2023-05-01T08:23:31;4.82;;;1.92;;
19944;SDS011;10134;50.952;6.930;2023-05-01T08:25:58;43.40;;;5.05;;
19944;SDS011;10134;50.952;6.930;2023-05-01T08:28:26;5.45;;;2.58;;
19944;SDS011;10134;50.952;6.930;2023-05-01T08:30:53;3.45;;;2.22;;
19944;SDS011;10134;50.952;6.930;2023-05-01T08:33:20;5.93;;;2.42;;
19944;SDS011;10134;50.952;6.930;2023-05-01T08:35:48;4.35;;;2.10;;
19944;SDS011;10134;50.952;6.930;2023-05-01T08:38:15;3.88;;;2.38;;
19944;SDS011;10134;50.952;6.930;2023-05-01T08:40:45;3.72;;;2.00;;
19944;SDS011;10134;50.952;6.930;2023-05-01T08:43:19;4.60;;;2.47;;
19944;SDS011;10134;50.952;6.930;2023-05-01T08:45:47;7.13;;;2.30;;
19944;SDS011;10134;50.952;6.930;2023-05-01T08:48:15;4.07;;;2.30;;
19944;SDS011;10134;50.952;6.930;2023-05-01T08:50:46;3.20;;;2.10;;
19944;SDS011;10134;50.952;6.930;2023-05-01T08:53:14;12.57;;;5.18;;
19944;SDS011;10134;50.952;6.930;2023-05-01T08:55:43;10.70;;;5.05;;
19944;SDS011;10134;50.952;6.930;2023-05-01T08:58:13;7.93;;;4.57;;
19944;SDS011;10134;50.952;6.930;2023-05-01T09:00:44;10.93;;;5.53;;
19944;SDS011;10134;50.952;6.930;2023-05-01T09:03:12;15.38;;;6.80;;
19944;SDS011;10134;50.952;6.930;2023-05-01T09:05:40;7.32;;;4.55;;
19944;SDS011;10134;50.952;6.930;2023-05-01T09:08:08;6.97;;;3.38;;
19944;SDS011;10134;50.952;6.930;2023-05-01T09:10:38;5.55;;;3.63;;
19944;SDS011;10134;50.952;6.930;2023-05-01T09:13:09;4.82;;;2.90;;
19944;SDS011;10134;50.952;6.930;2023-05-01T09:15:38;3.72;;;2.92;;
19944;SDS011;10134;50.952;6.930;2023-05-01T09:18:07;6.80;;;3.03;;
19944;SDS011;10134;50.952;6.930;2023-05-01T09:20:35;6.47;;;3.70;;
19944;SDS011;10134;50.952;6.930;2023-05-01T09:23:03;5.80;;;2.83;;
19944;SDS011;10134;50.952;6.930;2023-05-01T09:25:31;5.03;;;3.38;;
19944;SDS011;10134;50.952;6.930;2023-05-01T09:27:58;3.33;;;1.90;;
19944;SDS011;10134;50.952;6.930;2023-05-01T09:35:31;3.53;;;2.08;;
19944;SDS011;10134;50.952;6.930;2023-05-01T09:38:17;5.82;;;2.20;;
19944;SDS011;10134;50.952;6.930;2023-05-01T09:40:45;2.72;;;2.22;;
19944;SDS011;10134;50.952;6.930;2023-05-01T09:43:13;3.63;;;1.83;;
19944;SDS011;10134;50.952;6.930;2023-05-01T09:46:02;2.78;;;1.92;;
19944;SDS011;10134;50.952;6.930;2023-05-01T09:48:38;5.03;;;2.90;;
19944;SDS011;10134;50.952;6.930;2023-05-01T09:53:56;3.90;;;2.65;;
19944;SDS011;10134;50.952;6.930;2023-05-01T09:56:31;3.70;;;2.40;;
19944;SDS011;10134;50.952;6.930;2023-05-01T09:59:33;3.88;;;2.58;;
19944;SDS011;10134;50.952;6.930;2023-05-01T10:01:56;3.50;;;2.55;;
19944;SDS011;10134;50.952;6.930;2023-05-01T10:04:30;3.33;;;2.20;;
19944;SDS011;10134;50.952;6.930;2023-05-01T10:07:19;5.97;;;2.78;;
19944;SDS011;10134;50.952;6.930;2023-05-01T10:09:46;4.07;;;2.30;;
19944;SDS011;10134;50.952;6.930;2023-05-01T10:12:21;4.03;;;2.20;;
19944;SDS011;10134;50.952;6.930;2023-05-01T10:14:51;2.88;;;1.80;;
19944;SDS011;10134;50.952;6.930;2023-05-01T10:17:20;4.57;;;2.20;;
19944;SDS011;10134;50.952;6.930;2023-05-01T10:19:48;3.60;;;1.85;;
19944;SDS011;10134;50.952;6.930;2023-05-01T10:22:17;9.25;;;4.95;;
19944;SDS011;10134;50.952;6.930;2023-05-01T10:24:44;8.68;;;5.90;;
19944;SDS011;10134;50.952;6.930;2023-05-01T10:27:12;6.25;;;2.40;;
19944;SDS011;10134;50.952;6.930;2023-05-01T10:29:39;4.40;;;2.20;;
19944;SDS011;10134;50.952;6.930;2023-05-01T10:32:10;2.60;;;1.90;;
19944;SDS011;10134;50.952;6.930;2023-05-01T10:34:39;4.75;;;2.50;;
19944;SDS011;10134;50.952;6.930;2023-05-01T10:37:21;3.83;;;2.22;;
19944;SDS011;10134;50.952;6.930;2023-05-01T10:39:52;5.35;;;2.03;;
19944;SDS011;10134;50.952;6.930;2023-05-01T10:42:19;3.65;;;2.00;;
19944;SDS011;10134;50.952;6.930;2023-05-01T10:44:46;2.55;;;2.00;;
19944;SDS011;10134;50.952;6.930;2023-05-01T10:50:03;4.03;;;2.15;;
19944;SDS011;10134;50.952;6.930;2023-05-01T10:53:14;3.35;;;1.73;;
19944;SDS011;10134;50.952;6.930;2023-05-01T10:55:38;2.60;;;1.65;;
19944;SDS011;10134;50.952;6.930;2023-05-01T10:58:08;2.78;;;1.70;;
19944;SDS011;10134;50.952;6.930;2023-05-01T11:00:39;2.90;;;2.22;;
19944;SDS011;10134;50.952;6.930;2023-05-01T11:06:08;3.42;;;1.48;;
19944;SDS011;10134;50.952;6.930;2023-05-01T11:08:36;3.17;;;1.50;;
19944;SDS011;10134;50.952;6.930;2023-05-01T11:14:05;1.85;;;1.73;;
19944;SDS011;10134;50.952;6.930;2023-05-01T11:21:33;3.13;;;1.40;;
19944;SDS011;10134;50.952;6.930;2023-05-01T11:24:02;2.17;;;1.30;;
19944;SDS011;10134;50.952;6.930;2023-05-01T11:26:30;2.88;;;1.45;;
19944;SDS011;10134;50.952;6.930;2023-05-01T11:28:59;2.00;;;1.52;;
19944;SDS011;10134;50.952;6.930;2023-05-01T11:31:27;4.57;;;1.58;;
19944;SDS011;10134;50.952;6.930;2023-05-01T11:33:55;2.20;;;1.52;;
19944;SDS011;10134;50.952;6.930;2023-05-01T11:36:23;2.22;;;1.98;;
19944;SDS011;10134;50.952;6.930;2023-05-01T11:38:51;2.38;;;1.45;;
19944;SDS011;10134;50.952;6.930;2023-05-01T11:41:20;2.28;;;1.63;;
19944;SDS011;10134;50.952;6.930;2023-05-01T11:43:48;2.33;;;1.35;;
19944;SDS011;10134;50.952;6.930;2023-05-01T11:46:23;3.33;;;1.90;;
19944;SDS011;10134;50.952;6.930;2023-05-01T11:48:59;2.78;;;1.70;;
19944;SDS011;10134;50.952;6.930;2023-05-01T11:51:27;3.53;;;1.50;;
19944;SDS011;10134;50.952;6.930;2023-05-01T11:54:08;4.15;;;1.67;;
19944;SDS011;10134;50.952;6.930;2023-05-01T11:56:38;3.92;;;1.67;;
19944;SDS011;10134;50.952;6.930;2023-05-01T11:59:14;2.55;;;1.42;;
19944;SDS011;10134;50.952;6.930;2023-05-01T12:01:43;3.75;;;1.17;;
19944;SDS011;10134;50.952;6.930;2023-05-01T12:04:12;2.92;;;1.88;;
19944;SDS011;10134;50.952;6.930;2023-05-01T12:06:49;2.45;;;1.48;;
19944;SDS011;10134;50.952;6.930;2023-05-01T12:09:18;2.90;;;1.80;;
19944;SDS011;10134;50.952;6.930;2023-05-01T12:11:50;4.90;;;1.92;;
19944;SDS011;10134;50.952;6.930;2023-05-01T12:14:19;2.63;;;1.30;;
19944;SDS011;10134;50.952;6.930;2023-05-01T12:16:50;3.10;;;1.50;;
19944;SDS011;10134;50.952;6.930;2023-05-01T12:19:17;2.63;;;1.90;;
19944;SDS011;10134;50.952;6.930;2023-05-01T12:21:47;2.75;;;1.73;;
19944;SDS011;10134;50.952;6.930;2023-05-01T12:24:15;4.88;;;2.17;;
19944;SDS011;10134;50.952;6.930;2023-05-01T12:26:44;2.50;;;1.55;;
19944;SDS011;10134;50.952;6.930;2023-05-01T12:29:12;2.33;;;1.52;;
19944;SDS011;10134;50.952;6.930;2023-05-01T12:31:47;2.05;;;1.60;;
19944;SDS011;10134;50.952;6.930;2023-05-01T12:34:15;3.45;;;1.50;;
19944;SDS011;10134;50.952;6.930;2023-05-01T12:36:51;2.00;;;1.38;;
19944;SDS011;10134;50.952;6.930;2023-05-01T12:39:20;1.98;;;1.33;;
19944;SDS011;10134;50.952;6.930;2023-05-01T12:41:49;1.90;;;1.60;;
19944;SDS011;10134;50.952;6.930;2023-05-01T12:44:24;3.53;;;1.50;;
19944;SDS011;10134;50.952;6.930;2023-05-01T12:46:59;6.60;;;1.80;;
19944;SDS011;10134;50.952;6.930;2023-05-01T12:49:30;2.88;;;1.63;;
19944;SDS011;10134;50.952;6.930;2023-05-01T12:51:59;5.70;;;1.45;;
19944;SDS011;10134;50.952;6.930;2023-05-01T12:54:27;1.85;;;1.45;;
19944;SDS011;10134;50.952;6.930;2023-05-01T12:57:06;2.85;;;1.35;;
19944;SDS011;10134;50.952;6.930;2023-05-01T12:59:38;2.50;;;1.50;;
19944;SDS011;10134;50.952;6.930;2023-05-01T13:02:07;3.95;;;1.60;;
19944;SDS011;10134;50.952;6.930;2023-05-01T13:04:38;2.20;;;1.60;;
19944;SDS011;10134;50.952;6.930;2023-05-01T13:07:14;1.55;;;1.20;;
19944;SDS011;10134;50.952;6.930;2023-05-01T13:09:51;1.92;;;1.52;;
19944;SDS011;10134;50.952;6.930;2023-05-01T13:12:20;1.75;;;1.20;;
19944;SDS011;10134;50.952;6.930;2023-05-01T13:14:47;1.85;;;1.50;;
19944;SDS011;10134;50.952;6.930;2023-05-01T13:17:26;3.47;;;1.48;;
19944;SDS011;10134;50.952;6.930;2023-05-01T13:19:55;2.50;;;1.02;;
19944;SDS011;10134;50.952;6.930;2023-05-01T13:22:28;1.50;;;1.40;;
19944;SDS011;10134;50.952;6.930;2023-05-01T13:25:16;3.92;;;1.52;;
19944;SDS011;10134;50.952;6.930;2023-05-01T13:27:47;4.05;;;1.42;;
19944;SDS011;10134;50.952;6.930;2023-05-01T13:30:17;2.13;;;1.45;;
19944;SDS011;10134;50.952;6.930;2023-05-01T13:32:47;2.88;;;1.23;;
19944;SDS011;10134;50.952;6.930;2023-05-01T13:35:22;1.48;;;1.10;;
19944;SDS011;10134;50.952;6.930;2023-05-01T13:37:50;1.90;;;1.48;;
19944;SDS011;10134;50.952;6.930;2023-05-01T13:40:19;1.73;;;1.63;;
19944;SDS011;10134;50.952;6.930;2023-05-01T13:42:50;5.35;;;1.95;;
19944;SDS011;10134;50.952;6.930;2023-05-01T13:45:18;3.50;;;2.47;;
19944;SDS011;10134;50.952;6.930;2023-05-01T13:47:48;2.78;;;2.20;;
19944;SDS011;10134;50.952;6.930;2023-05-01T13:50:17;2.13;;;1.77;;
19944;SDS011;10134;50.952;6.930;2023-05-01T13:52:44;3.85;;;1.70;;
19944;SDS011;10134;50.952;6.930;2023-05-01T13:55:12;3.08;;;2.00;;
19944;SDS011;10134;50.952;6.930;2023-05-01T13:57:40;3.15;;;2.42;;
19944;SDS011;10134;50.952;6.930;2023-05-01T14:00:10;6.03;;;3.78;;
19944;SDS011;10134;50.952;6.930;2023-05-01T14:02:44;6.13;;;3.40;;
19944;SDS011;10134;50.952;6.930;2023-05-01T14:05:22;3.80;;;2.90;;
19944;SDS011;10134;50.952;6.930;2023-05-01T14:07:54;4.35;;;2.75;;
19944;SDS011;10134;50.952;6.930;2023-05-01T14:10:25;5.65;;;2.92;;
19944;SDS011;10134;50.952;6.930;2023-05-01T14:12:54;6.55;;;3.25;;
19944;SDS011;10134;50.952;6.930;2023-05-01T14:15:23;4.53;;;3.08;;
19944;SDS011;10134;50.952;6.930;2023-05-01T14:17:51;4.93;;;2.72;;
19944;SDS011;10134;50.952;6.930;2023-05-01T14:20:18;4.82;;;3.40;;
19944;SDS011;10134;50.952;6.930;2023-05-01T14:22:46;4.70;;;2.72;;
19944;SDS011;10134;50.952;6.930;2023-05-01T14:25:27;4.38;;;2.13;;
19944;SDS011;10134;50.952;6.930;2023-05-01T14:27:57;4.47;;;2.80;;
19944;SDS011;10134;50.952;6.930;2023-05-01T14:30:27;3.65;;;1.83;;
19944;SDS011;10134;50.952;6.930;2023-05-01T14:33:02;3.45;;;2.40;;
19944;SDS011;10134;50.952;6.930;2023-05-01T14:35:35;2.97;;;2.58;;
19944;SDS011;10134;50.952;6.930;2023-05-01T14:38:11;1.92;;;1.70;;
19944;SDS011;10134;50.952;6.930;2023-05-01T14:40:40;2.33;;;1.95;;
19944;SDS011;10134;50.952;6.930;2023-05-01T14:43:08;2.47;;;2.03;;
19944;SDS011;10134;50.952;6.930;2023-05-01T14:45:41;2.47;;;1.95;;
19944;SDS011;10134;50.952;6.930;2023-05-01T14:48:09;3.17;;;2.53;;
19944;SDS011;10134;50.952;6.930;2023-05-01T14:50:46;3.15;;;2.38;;
19944;SDS011;10134;50.952;6.930;2023-05-01T14:53:14;2.80;;;2.22;;
19944;SDS011;10134;50.952;6.930;2023-05-01T14:55:41;4.70;;;3.28;;
19944;SDS011;10134;50.952;6.930;2023-05-01T14:58:09;3.70;;;2.78;;
19944;SDS011;10134;50.952;6.930;2023-05-01T15:00:36;5.78;;;4.10;;
19944;SDS011;10134;50.952;6.930;2023-05-01T15:03:03;4.10;;;3.60;;
19944;SDS011;10134;50.952;6.930;2023-05-01T15:05:31;4.07;;;3.10;;
19944;SDS011;10134;50.952;6.930;2023-05-01T15:08:00;5.22;;;3.15;;
19944;SDS011;10134;50.952;6.930;2023-05-01T15:10:27;5.57;;;3.40;;
19944;SDS011;10134;50.952;6.930;2023-05-01T15:12:55;6.60;;;3.88;;
19944;SDS011;10134;50.952;6.930;2023-05-01T15:15:22;7.07;;;3.88;;
19944;SDS011;10134;50.952;6.930;2023-05-01T15:17:49;3.85;;;2.97;;
19944;SDS011;10134;50.952;6.930;2023-05-01T15:20:17;4.88;;;3.60;;
19944;SDS011;10134;50.952;6.930;2023-05-01T15:22:44;5.07;;;3.50;;
19944;SDS011;10134;50.952;6.930;2023-05-01T15:25:11;5.35;;;3.03;;
19944;SDS011;10134;50.952;6.930;2023-05-01T15:27:40;5.35;;;2.80;;
19944;SDS011;10134;50.952;6.930;2023-05-01T15:30:11;6.60;;;3.10;;
19944;SDS011;10134;50.952;6.930;2023-05-01T15:32:38;3.10;;;2.80;;
19944;SDS011;10134;50.952;6.930;2023-05-01T15:35:05;4.00;;;2.47;;
19944;SDS011;10134;50.952;6.930;2023-05-01T15:37:33;6.03;;;2.97;;
19944;SDS011;10134;50.952;6.930;2023-05-01T15:40:01;5.50;;;4.07;;
19944;SDS011;10134;50.952;6.930;2023-05-01T15:42:29;3.58;;;2.88;;
19944;SDS011;10134;50.952;6.930;2023-05-01T15:44:57;3.70;;;2.95;;
19944;SDS011;10134;50.952;6.930;2023-05-01T15:47:25;6.00;;;2.55;;
19944;SDS011;10134;50.952;6.930;2023-05-01T15:49:54;6.28;;;3.17;;
19944;SDS011;10134;50.952;6.930;2023-05-01T15:52:21;3.20;;;2.55;;